As Olivia — DYQC — position and weather

sailwx.info

Track history (hours):
 
Tides and Currents Weather Stations Pressure Air Temp Water Temp Dewpoint Dewpoint Depression Visibility Wind Speed Wind Dir Waves Ship Positions

As Olivia

Last reported at 2016-Jan-13 19:33 UTC. Time now 2016-Feb-09 15:55 UTC.
Position N 40°31' W 073°59'.
Warning: this ship's position is 26 days out of date.

Length 146 m; draft 7.4 m.

Type: Tanker. MMSI: 548767000.

Date/timePositionNaut miles runAvg speedWind from/ knotsBaromVisibWave heightAir tempDewpointWater temp
2016-Jan-13 19:33N 40°31' W 073°59'9 8.5
2016-Jan-13 18:32N 40°38' W 074°04'0 0.1
2016-Jan-13 17:32N 40°38' W 074°04'0 0.2
2016-Jan-13 16:32N 40°38' W 074°04'0 0.1
2016-Jan-13 15:32N 40°39' W 074°04'0 0.0
2016-Jan-13 14:32N 40°39' W 074°04'0 0.0
2016-Jan-13 13:32N 40°39' W 074°04'0 0.1
2016-Jan-13 12:32N 40°38' W 074°04'0 0.2
2016-Jan-13 11:32N 40°38' W 074°04'0 0.1
2016-Jan-13 10:32N 40°38' W 074°04'0 0.1
2016-Jan-13 09:32N 40°38' W 074°04'0 0.0
2016-Jan-13 08:32N 40°38' W 074°04'0 0.0
2016-Jan-13 07:32N 40°38' W 074°04'0 0.0
2016-Jan-13 06:32N 40°38' W 074°04'0 0.0
2016-Jan-13 05:29N 40°38' W 074°04'0 0.1
2016-Jan-13 04:32N 40°38' W 074°04'0 0.1
2016-Jan-13 03:32N 40°38' W 074°04'0 0.1
2016-Jan-13 02:32N 40°38' W 074°04'0 0.1
2016-Jan-13 01:32N 40°38' W 074°04'0 0.2
2016-Jan-13 00:32N 40°38' W 074°04'0 0.1
2016-Jan-12 23:29N 40°38' W 074°04'0 0.0
2016-Jan-12 22:32N 40°38' W 074°04'0 0.1
2016-Jan-12 21:32N 40°38' W 074°04'0 0.0
2016-Jan-12 20:32N 40°38' W 074°04'0 0.0
2016-Jan-12 19:32N 40°38' W 074°04'2 2.1
2016-Jan-12 18:33N 40°36' W 074°03'9 9.2
2016-Jan-12 17:33N 40°29' W 073°55'3710.8
2016-Jan-12 14:09N 39°54' W 073°42'4 5.1
2016-Jan-12 13:16N 39°49' W 073°42'7 9.6
2016-Jan-12 12:33N 39°42' W 073°42'  
Track history (hours):
 
Tides and Currents Weather Stations Pressure Air Temp Water Temp Dewpoint Dewpoint Depression Visibility Wind Speed Wind Dir Waves Ship Positions

As Olivia

Last reported at 2016-Jan-13 19:33 UTC. Time now 2016-Feb-09 15:55 UTC.
Position N 40°31' W 073°59'.
Warning: this ship's position is 26 days out of date.

Length 146 m; draft 7.4 m.

Type: Tanker. MMSI: 548767000.

Date/timePositionNaut miles runAvg speedWind from/ knotsBaromVisibWave heightAir tempDewpointWater temp
2016-Jan-13 19:33N 40°31' W 073°59'9 8.5
2016-Jan-13 18:32N 40°38' W 074°04'0 0.1
2016-Jan-13 17:32N 40°38' W 074°04'0 0.2
2016-Jan-13 16:32N 40°38' W 074°04'0 0.1
2016-Jan-13 15:32N 40°39' W 074°04'0 0.0
2016-Jan-13 14:32N 40°39' W 074°04'0 0.0
2016-Jan-13 13:32N 40°39' W 074°04'0 0.1
2016-Jan-13 12:32N 40°38' W 074°04'0 0.2
2016-Jan-13 11:32N 40°38' W 074°04'0 0.1
2016-Jan-13 10:32N 40°38' W 074°04'0 0.1
2016-Jan-13 09:32N 40°38' W 074°04'0 0.0
2016-Jan-13 08:32N 40°38' W 074°04'0 0.0
2016-Jan-13 07:32N 40°38' W 074°04'0 0.0
2016-Jan-13 06:32N 40°38' W 074°04'0 0.0
2016-Jan-13 05:29N 40°38' W 074°04'0 0.1
2016-Jan-13 04:32N 40°38' W 074°04'0 0.1
2016-Jan-13 03:32N 40°38' W 074°04'0 0.1
2016-Jan-13 02:32N 40°38' W 074°04'0 0.1
2016-Jan-13 01:32N 40°38' W 074°04'0 0.2
2016-Jan-13 00:32N 40°38' W 074°04'0 0.1
2016-Jan-12 23:29N 40°38' W 074°04'0 0.0
2016-Jan-12 22:32N 40°38' W 074°04'0 0.1
2016-Jan-12 21:32N 40°38' W 074°04'0 0.0
2016-Jan-12 20:32N 40°38' W 074°04'0 0.0
2016-Jan-12 19:32N 40°38' W 074°04'2 2.1
2016-Jan-12 18:33N 40°36' W 074°03'9 9.2
2016-Jan-12 17:33N 40°29' W 073°55'3710.8
2016-Jan-12 14:09N 39°54' W 073°42'4 5.1
2016-Jan-12 13:16N 39°49' W 073°42'7 9.6
2016-Jan-12 12:33N 39°42' W 073°42'  

Dump ship's entire track history